createdAt,value
2022-09-22T00:01:59.513Z,77.58
2022-09-22T00:04:46.500Z,77.27
2022-09-22T00:07:33.716Z,77.59
2022-09-22T00:10:20.588Z,77.55
2022-09-22T00:13:11.302Z,77.54
2022-09-22T00:15:58.344Z,77.65
2022-09-22T00:18:45.519Z,77.38
2022-09-22T00:21:39.182Z,78.11
2022-09-22T00:24:29.467Z,77.26
2022-09-22T00:27:17.940Z,77.69
2022-09-22T00:30:04.949Z,77.74
2022-09-22T00:32:51.884Z,77.64
2022-09-22T00:35:39.103Z,78.19
2022-09-22T00:38:26.288Z,78.27
2022-09-22T00:41:13.157Z,77.86
2022-09-22T00:44:01.391Z,78.32
2022-09-22T00:46:51.504Z,77.95
2022-09-22T00:49:42.874Z,77.83
2022-09-22T00:52:31.971Z,77.86
2022-09-22T00:55:22.618Z,78.28
2022-09-22T00:58:11.768Z,77.67
2022-09-22T01:00:58.925Z,77.76
2022-09-22T01:03:46.443Z,77.65
2022-09-22T01:06:37.944Z,78.19
2022-09-22T01:09:26.688Z,77.59
2022-09-22T01:12:13.588Z,77.96
2022-09-22T01:15:14.645Z,77.61
2022-09-22T01:18:08.496Z,77.95
2022-09-22T01:20:55.458Z,77.77
2022-09-22T01:24:06.601Z,77.88
2022-09-22T01:26:59.572Z,77.95
2022-09-22T01:30:12.799Z,78.13
2022-09-22T01:33:18.371Z,78.15
2022-09-22T01:36:23.913Z,77.97
2022-09-22T01:39:45.733Z,78.13
2022-09-22T01:42:57.327Z,77.61
2022-09-22T01:45:48.198Z,78.28
2022-09-22T01:48:44.446Z,78.48
2022-09-22T01:51:37.125Z,78.51
2022-09-22T01:54:50.210Z,78.35
2022-09-22T01:57:55.010Z,78.64
2022-09-22T02:00:42.347Z,77.97
2022-09-22T02:03:39.639Z,78.17
2022-09-22T02:06:38.592Z,78.11
2022-09-22T02:09:36.555Z,78.48
2022-09-22T02:12:24.588Z,78.77
2022-09-22T02:15:11.677Z,78.47
2022-09-22T02:17:59.126Z,78.42
2022-09-22T02:20:46.448Z,78.31
2022-09-22T02:23:33.298Z,78.43
2022-09-22T02:26:24.946Z,78.61
2022-09-22T02:29:30.520Z,78.71
2022-09-22T02:32:18.815Z,78.49
2022-09-22T02:35:06.895Z,78.27
2022-09-22T02:38:05.535Z,78.40
2022-09-22T02:41:08.786Z,78.52
2022-09-22T02:44:03.809Z,78.37
2022-09-22T02:46:58.582Z,77.88
2022-09-22T02:49:48.228Z,78.48
2022-09-22T02:52:35.064Z,78.49
2022-09-22T02:55:22.263Z,78.44
2022-09-22T02:58:09.119Z,78.44
2022-09-22T03:00:56.175Z,78.45
2022-09-22T03:03:42.980Z,78.45
2022-09-22T03:06:29.988Z,78.38
2022-09-22T03:09:16.915Z,78.21
2022-09-22T03:12:04.432Z,78.34
2022-09-22T03:14:51.284Z,78.29
2022-09-22T03:17:38.323Z,78.27
2022-09-22T03:20:26.246Z,78.59
2022-09-22T03:23:13.111Z,78.33
2022-09-22T03:26:00.036Z,78.30
2022-09-22T03:28:47.103Z,78.05
2022-09-22T03:31:34.538Z,78.01
2022-09-22T03:34:21.563Z,78.20
2022-09-22T03:37:08.415Z,78.11
2022-09-22T03:39:55.488Z,77.96
2022-09-22T03:42:42.433Z,78.00
2022-09-22T03:45:31.196Z,78.04
2022-09-22T03:48:18.168Z,78.24
2022-09-22T03:51:05.076Z,77.98
2022-09-22T03:53:52.143Z,78.14
2022-09-22T03:56:39.112Z,77.96
2022-09-22T03:59:26.004Z,78.18
2022-09-22T04:02:13.126Z,78.35
2022-09-22T04:05:00.028Z,78.23
2022-09-22T04:07:46.979Z,77.92
2022-09-22T04:10:33.898Z,78.14
2022-09-22T04:13:20.883Z,78.42
2022-09-22T04:16:07.784Z,78.31
2022-09-22T04:18:57.400Z,78.44
2022-09-22T04:21:24.252Z,77.70
2022-09-22T04:24:11.192Z,77.88
2022-09-22T04:30:06.096Z,77.59
2022-09-22T04:32:52.974Z,78.03
2022-09-22T04:35:40.603Z,78.01
2022-09-22T04:38:27.489Z,78.20
2022-09-22T04:41:14.535Z,78.07
2022-09-22T04:44:01.327Z,77.69
2022-09-22T04:46:48.482Z,78.21
2022-09-22T04:49:35.520Z,77.72
2022-09-22T04:52:23.035Z,78.26
2022-09-22T04:55:10.027Z,78.37
2022-09-22T04:57:57.669Z,78.48
2022-09-22T05:00:47.940Z,77.71
2022-09-22T05:03:35.006Z,77.99
2022-09-22T05:06:21.837Z,78.02
2022-09-22T05:09:08.858Z,77.92
2022-09-22T05:11:56.036Z,78.37
2022-09-22T05:14:43.043Z,78.00
2022-09-22T05:17:29.836Z,78.09
2022-09-22T05:20:16.840Z,78.41
2022-09-22T05:23:04.092Z,78.62
2022-09-22T05:25:51.233Z,78.36
2022-09-22T05:28:38.188Z,77.85
2022-09-22T05:31:25.239Z,78.55
2022-09-22T05:34:12.070Z,78.07
2022-09-22T05:36:59.179Z,78.88
2022-09-22T05:39:46.023Z,78.73
2022-09-22T05:42:33.168Z,78.14
2022-09-22T05:45:20.091Z,78.61
2022-09-22T05:48:07.274Z,78.21
2022-09-22T05:50:54.152Z,78.31
2022-09-22T05:53:41.160Z,78.87
2022-09-22T05:56:28.117Z,78.28
2022-09-22T05:59:15.011Z,78.86
2022-09-22T06:02:09.386Z,78.44
2022-09-22T06:05:04.959Z,78.49
2022-09-22T06:07:51.855Z,78.76
2022-09-22T06:10:38.898Z,78.73
2022-09-22T06:13:28.781Z,78.69
2022-09-22T06:16:15.607Z,78.52
2022-09-22T06:19:05.667Z,78.97
2022-09-22T06:21:52.572Z,78.96
2022-09-22T06:24:39.532Z,78.60
2022-09-22T06:27:26.593Z,78.56
2022-09-22T06:30:13.556Z,79.00
2022-09-22T06:33:00.537Z,78.78
2022-09-22T06:35:50.507Z,78.86
2022-09-22T06:38:37.427Z,79.38
2022-09-22T06:41:24.379Z,79.38
2022-09-22T06:44:11.663Z,79.32
2022-09-22T06:46:58.693Z,79.17
2022-09-22T06:49:45.727Z,79.28
2022-09-22T06:52:35.822Z,79.64
2022-09-22T06:55:24.131Z,79.28
2022-09-22T06:58:12.037Z,79.42
2022-09-22T07:00:59.209Z,79.34
2022-09-22T07:03:46.216Z,79.33
2022-09-22T07:06:36.622Z,79.59
2022-09-22T07:09:25.214Z,79.44
2022-09-22T07:12:12.218Z,79.13
2022-09-22T07:14:59.124Z,79.38
2022-09-22T07:17:31.889Z,79.26
2022-09-22T07:19:58.899Z,79.38
2022-09-22T07:22:26.998Z,79.97
2022-09-22T07:24:54.059Z,79.25
2022-09-22T07:27:40.977Z,79.71
2022-09-22T07:30:28.499Z,79.29
2022-09-22T07:33:17.064Z,79.47
2022-09-22T07:36:04.358Z,79.48
2022-09-22T07:38:51.615Z,78.68
2022-09-22T07:41:50.119Z,79.02
2022-09-22T07:44:38.811Z,78.36
2022-09-22T07:47:27.961Z,79.00
2022-09-22T07:50:14.944Z,78.27
2022-09-22T07:53:01.796Z,77.91
2022-09-22T07:55:48.668Z,77.90
2022-09-22T07:58:35.647Z,78.49
2022-09-22T08:01:26.968Z,77.57
2022-09-22T08:04:16.589Z,77.91
2022-09-22T08:07:07.775Z,77.63
2022-09-22T08:09:54.716Z,77.28
2022-09-22T08:12:41.567Z,77.75
2022-09-22T08:15:29.139Z,77.27
2022-09-22T08:18:17.228Z,77.43
2022-09-22T08:21:04.139Z,76.39
2022-09-22T08:23:51.139Z,76.52
2022-09-22T08:26:38.772Z,76.02
2022-09-22T08:29:27.299Z,75.68
2022-09-22T08:32:14.147Z,76.14
2022-09-22T08:35:01.060Z,76.33
2022-09-22T08:37:48.268Z,75.89
2022-09-22T08:40:23.244Z,74.98
2022-09-22T08:42:54.152Z,74.85
2022-09-22T08:45:30.197Z,75.03
2022-09-22T08:48:22.440Z,73.64
2022-09-22T08:51:11.560Z,73.72
2022-09-22T08:53:44.983Z,74.26
2022-09-22T08:56:29.267Z,73.34
2022-09-22T08:59:23.332Z,74.47
2022-09-22T09:02:02.591Z,73.98
2022-09-22T09:05:03.911Z,73.84
2022-09-22T09:08:20.504Z,73.85
2022-09-22T09:11:14.686Z,74.05
2022-09-22T09:14:26.063Z,74.19
2022-09-22T09:17:23.569Z,74.19
2022-09-22T09:20:19.138Z,73.98
2022-09-22T09:23:15.897Z,74.21
2022-09-22T09:26:10.024Z,73.84
2022-09-22T09:29:11.754Z,73.50
2022-09-22T09:32:11.039Z,73.80
2022-09-22T09:34:58.039Z,73.38
2022-09-22T09:37:45.403Z,73.83
2022-09-22T09:40:40.028Z,73.48
2022-09-22T09:43:28.212Z,74.35
2022-09-22T09:46:29.397Z,74.08
2022-09-22T09:49:25.487Z,73.19
2022-09-22T09:52:20.319Z,72.63
2022-09-22T09:55:07.491Z,72.57
2022-09-22T09:57:54.377Z,72.20
2022-09-22T10:00:53.535Z,71.32
2022-09-22T10:04:04.476Z,71.33
2022-09-22T10:06:51.487Z,70.79
2022-09-22T10:09:47.891Z,70.73
2022-09-22T10:12:52.049Z,70.24
2022-09-22T10:15:44.785Z,70.03
2022-09-22T10:18:59.235Z,69.81
2022-09-22T10:21:46.995Z,69.86
2022-09-22T10:25:12.592Z,69.29
2022-09-22T10:27:59.543Z,68.63
2022-09-22T10:30:46.602Z,68.69
2022-09-22T10:33:43.708Z,68.57
2022-09-22T10:36:31.718Z,68.46
2022-09-22T10:39:19.105Z,68.11
2022-09-22T10:42:08.615Z,67.80
2022-09-22T10:44:55.708Z,67.71
2022-09-22T10:47:46.674Z,67.60
2022-09-22T10:50:54.511Z,67.62
2022-09-22T10:54:08.713Z,67.15
2022-09-22T10:57:06.359Z,66.43
2022-09-22T10:59:56.136Z,66.54
2022-09-22T11:03:20.831Z,66.27
2022-09-22T11:06:18.644Z,66.40
2022-09-22T11:09:29.220Z,65.59
2022-09-22T11:12:38.619Z,65.70
2022-09-22T11:15:43.554Z,65.58
2022-09-22T11:18:10.506Z,66.16
2022-09-22T11:20:44.424Z,66.14
2022-09-22T11:23:31.650Z,66.08
2022-09-22T11:26:13.808Z,66.60
2022-09-22T11:28:54.872Z,66.56
2022-09-22T11:31:39.296Z,66.25
2022-09-22T11:34:37.425Z,65.71
2022-09-22T11:37:26.323Z,65.49
2022-09-22T11:40:12.108Z,65.64
2022-09-22T11:42:51.339Z,65.32
2022-09-22T11:45:43.438Z,65.51
2022-09-22T11:48:25.992Z,66.57
2022-09-22T11:51:01.124Z,66.10
2022-09-22T11:53:56.070Z,66.13
2022-09-22T11:56:33.372Z,66.74
2022-09-22T11:59:06.566Z,65.93
2022-09-22T12:01:38.384Z,66.37
2022-09-22T12:04:14.201Z,66.07
2022-09-22T12:06:45.022Z,66.90
2022-09-22T12:09:37.755Z,66.48
2022-09-22T12:12:06.500Z,67.09
2022-09-22T12:14:35.267Z,67.19
2022-09-22T12:17:18.822Z,67.90
2022-09-22T12:20:13.303Z,67.73
2022-09-22T12:22:59.940Z,67.76
2022-09-22T12:25:54.418Z,67.97
2022-09-22T12:28:28.227Z,67.88
2022-09-22T12:31:02.493Z,67.75
2022-09-22T12:33:30.217Z,67.62
2022-09-22T12:35:58.329Z,67.74
2022-09-22T12:38:25.817Z,67.16
2022-09-22T12:40:58.461Z,66.93
2022-09-22T12:43:27.944Z,66.63
2022-09-22T12:45:57.584Z,66.39
2022-09-22T12:48:29.679Z,66.08
2022-09-22T12:51:16.927Z,65.84
2022-09-22T12:53:44.145Z,65.99
2022-09-22T12:56:46.614Z,66.44
2022-09-22T12:59:57.084Z,66.04
2022-09-22T13:02:26.611Z,66.28
2022-09-22T13:04:55.928Z,65.88
2022-09-22T13:07:43.126Z,66.14
2022-09-22T13:10:25.092Z,66.16
2022-09-22T13:13:21.588Z,66.06
2022-09-22T13:15:51.796Z,66.32
2022-09-22T13:18:37.422Z,65.85
2022-09-22T13:21:13.577Z,65.66
2022-09-22T13:24:12.133Z,65.76
2022-09-22T13:27:02.169Z,65.46
2022-09-22T13:29:49.319Z,65.17
2022-09-22T13:32:40.035Z,65.65
2022-09-22T13:36:01.351Z,65.58
2022-09-22T13:38:49.970Z,65.67
2022-09-22T13:41:40.394Z,66.31
2022-09-22T13:44:30.730Z,66.31
2022-09-22T13:47:21.029Z,66.25
2022-09-22T13:50:13.934Z,66.14
2022-09-22T13:53:01.747Z,66.63
2022-09-22T13:55:53.263Z,66.16
2022-09-22T13:59:07.137Z,66.30
2022-09-22T14:01:54.104Z,66.53
2022-09-22T14:04:42.339Z,67.10
2022-09-22T14:07:30.390Z,67.48
2022-09-22T14:10:19.380Z,67.46
2022-09-22T14:13:06.835Z,67.62
2022-09-22T14:16:02.784Z,68.07
2022-09-22T14:18:50.641Z,68.92
2022-09-22T14:21:38.068Z,68.75
2022-09-22T14:24:26.055Z,69.07
2022-09-22T14:27:15.575Z,69.06
2022-09-22T14:30:09.081Z,69.21
2022-09-22T14:33:08.146Z,69.52
2022-09-22T14:35:56.359Z,69.83
2022-09-22T14:38:48.412Z,69.61
2022-09-22T14:41:49.838Z,69.76
2022-09-22T14:45:01.811Z,70.18
2022-09-22T14:47:50.065Z,70.25
2022-09-22T14:50:58.713Z,70.62
2022-09-22T14:54:01.257Z,70.75
2022-09-22T14:56:51.325Z,70.86
2022-09-22T14:59:36.804Z,71.02
2022-09-22T15:02:22.161Z,71.16
2022-09-22T15:05:12.188Z,71.45
2022-09-22T15:08:08.007Z,71.67
2022-09-22T15:10:54.984Z,72.22
2022-09-22T15:13:38.235Z,72.26
2022-09-22T15:16:06.849Z,72.65
2022-09-22T15:18:33.887Z,72.72
2022-09-22T15:21:03.629Z,72.55
2022-09-22T15:23:45.277Z,72.62
2022-09-22T15:26:17.863Z,72.66
2022-09-22T15:28:48.477Z,73.00
2022-09-22T15:31:29.649Z,73.54
2022-09-22T15:34:00.185Z,72.95
2022-09-22T15:36:30.742Z,73.21
2022-09-22T15:39:07.233Z,73.14
2022-09-22T15:41:35.039Z,73.38
2022-09-22T15:44:03.328Z,73.83
2022-09-22T15:46:37.998Z,73.72
2022-09-22T15:49:20.848Z,73.87
2022-09-22T15:51:51.687Z,74.28
2022-09-22T15:54:21.465Z,74.06
2022-09-22T15:56:51.526Z,74.04
2022-09-22T15:59:24.376Z,74.17
2022-09-22T16:01:52.085Z,74.45
2022-09-22T16:04:20.131Z,74.67
2022-09-22T16:06:54.458Z,74.74
2022-09-22T16:09:21.526Z,74.53
2022-09-22T16:11:48.451Z,74.48
2022-09-22T16:14:15.424Z,75.04
2022-09-22T16:16:43.065Z,74.69
2022-09-22T16:19:10.548Z,74.90
2022-09-22T16:21:43.211Z,75.38
2022-09-22T16:24:11.684Z,75.05
2022-09-22T16:26:40.219Z,75.47
2022-09-22T16:29:08.448Z,75.43
2022-09-22T16:31:37.267Z,75.29
2022-09-22T16:34:25.449Z,75.72
2022-09-22T16:37:12.364Z,75.80
2022-09-22T16:39:59.300Z,75.55
2022-09-22T16:42:26.282Z,75.88
2022-09-22T16:44:53.166Z,75.79
2022-09-22T16:47:23.124Z,75.86
2022-09-22T16:49:51.425Z,76.37
2022-09-22T16:52:20.090Z,75.95
2022-09-22T16:54:47.188Z,76.57
2022-09-22T16:57:14.193Z,76.98
2022-09-22T16:59:41.060Z,76.68
2022-09-22T17:02:10.344Z,76.68
2022-09-22T17:04:37.464Z,76.74
2022-09-22T17:07:05.687Z,76.95
2022-09-22T17:09:33.015Z,77.08
2022-09-22T17:12:00.905Z,77.54
2022-09-22T17:14:29.066Z,77.26
2022-09-22T17:16:58.370Z,77.19
2022-09-22T17:19:27.750Z,77.64
2022-09-22T17:21:56.288Z,77.58
2022-09-22T17:24:24.896Z,77.40
2022-09-22T17:26:54.401Z,77.54
2022-09-22T17:29:25.073Z,77.91
2022-09-22T17:31:57.447Z,77.47
2022-09-22T17:34:28.655Z,78.16
2022-09-22T17:36:57.387Z,77.76
2022-09-22T17:39:26.895Z,78.36
2022-09-22T17:41:54.868Z,78.63
2022-09-22T17:44:22.838Z,78.36
2022-09-22T17:47:10.377Z,78.59
2022-09-22T17:49:57.508Z,78.05
2022-09-22T17:52:43.955Z,78.16
2022-09-22T17:55:20.327Z,78.02
2022-09-22T17:57:47.381Z,78.72
2022-09-22T18:00:19.405Z,78.47
2022-09-22T18:02:46.798Z,78.87
2022-09-22T18:05:16.344Z,79.20
2022-09-22T18:07:43.389Z,79.37
2022-09-22T18:10:15.751Z,78.88
2022-09-22T18:12:43.560Z,79.51
2022-09-22T18:15:13.469Z,78.89
2022-09-22T18:17:42.532Z,79.36
2022-09-22T18:20:15.015Z,79.19
2022-09-22T18:22:47.665Z,79.21
2022-09-22T18:25:23.935Z,78.97
2022-09-22T18:27:51.663Z,79.22
2022-09-22T18:30:19.523Z,79.19
2022-09-22T18:32:48.028Z,79.01
2022-09-22T18:35:15.283Z,78.99
2022-09-22T18:37:42.304Z,79.15
2022-09-22T18:40:11.919Z,79.15
2022-09-22T18:42:38.924Z,79.85
2022-09-22T18:45:06.527Z,79.70
2022-09-22T18:47:41.108Z,79.33
2022-09-22T18:50:08.713Z,79.67
2022-09-22T18:52:36.800Z,79.14
2022-09-22T18:55:05.082Z,79.46
2022-09-22T18:57:32.142Z,79.40
2022-09-22T19:00:01.200Z,79.81
2022-09-22T19:02:28.668Z,80.01
2022-09-22T19:04:55.736Z,80.10
2022-09-22T19:07:42.481Z,79.70
2022-09-22T19:10:20.517Z,80.17
2022-09-22T19:12:48.768Z,79.55
2022-09-22T19:15:18.814Z,79.98
2022-09-22T19:17:48.548Z,80.31
2022-09-22T19:20:18.540Z,79.63
2022-09-22T19:22:46.857Z,80.27
2022-09-22T19:25:13.863Z,80.58
2022-09-22T19:27:41.042Z,80.20
2022-09-22T19:30:09.696Z,79.87
2022-09-22T19:32:36.637Z,80.38
2022-09-22T19:35:04.555Z,80.89
2022-09-22T19:37:31.595Z,79.75
2022-09-22T19:39:58.641Z,79.65
2022-09-22T19:42:25.730Z,80.05
2022-09-22T19:44:52.871Z,79.98
2022-09-22T19:47:21.051Z,80.35
2022-09-22T19:49:48.275Z,80.25
2022-09-22T19:52:15.203Z,80.68
2022-09-22T19:54:42.105Z,80.19
2022-09-22T19:57:09.056Z,80.72
2022-09-22T19:59:36.068Z,80.73
2022-09-22T20:02:04.643Z,80.46
2022-09-22T20:04:34.688Z,80.64
2022-09-22T20:07:01.716Z,80.98
2022-09-22T20:09:28.968Z,81.02
2022-09-22T20:11:56.052Z,81.27
2022-09-22T20:14:23.711Z,81.26
2022-09-22T20:17:03.271Z,80.51
2022-09-22T20:19:32.612Z,81.00
2022-09-22T20:22:25.645Z,81.61
2022-09-22T20:24:55.762Z,81.60
2022-09-22T20:27:31.864Z,81.36
2022-09-22T20:29:59.963Z,81.91
2022-09-22T20:32:29.285Z,82.11
2022-09-22T20:34:56.369Z,81.49
2022-09-22T20:37:44.121Z,82.45
2022-09-22T20:40:36.815Z,81.15
2022-09-22T20:43:23.715Z,82.02
2022-09-22T20:46:10.704Z,81.92
2022-09-22T20:48:57.751Z,81.97
2022-09-22T20:51:44.781Z,81.92
2022-09-22T20:54:31.573Z,81.79
2022-09-22T20:57:18.557Z,82.35
2022-09-22T21:00:05.567Z,81.55
2022-09-22T21:02:53.315Z,81.35
2022-09-22T21:05:40.191Z,82.50
2022-09-22T21:08:25.855Z,82.58
2022-09-22T21:11:12.652Z,82.17
2022-09-22T21:13:59.803Z,82.63
2022-09-22T21:16:46.701Z,82.40
2022-09-22T21:19:33.884Z,82.68
2022-09-22T21:22:20.958Z,83.11
2022-09-22T21:25:08.112Z,82.05
2022-09-22T21:27:54.925Z,82.53
2022-09-22T21:30:42.018Z,83.35
2022-09-22T21:33:28.893Z,83.06
2022-09-22T21:36:30.744Z,83.09
2022-09-22T21:39:19.666Z,82.18
2022-09-22T21:42:06.594Z,82.40
2022-09-22T21:44:53.396Z,82.69
2022-09-22T21:47:40.317Z,83.24
2022-09-22T21:50:27.597Z,83.06
2022-09-22T21:53:14.696Z,82.28
2022-09-22T21:56:01.536Z,82.30
2022-09-22T21:58:50.312Z,83.11
2022-09-22T22:01:48.446Z,83.38
2022-09-22T22:04:35.799Z,82.73
2022-09-22T22:07:22.705Z,83.46
2022-09-22T22:10:09.584Z,83.80
2022-09-22T22:12:56.388Z,83.67
2022-09-22T22:15:43.512Z,82.99
2022-09-22T22:18:30.359Z,83.05
2022-09-22T22:21:19.251Z,83.23
2022-09-22T22:24:08.491Z,83.49
2022-09-22T22:26:56.916Z,83.34
2022-09-22T22:29:45.957Z,83.56
2022-09-22T22:32:33.055Z,83.63
2022-09-22T22:35:20.191Z,83.08
2022-09-22T22:38:07.208Z,84.15
2022-09-22T22:40:54.036Z,84.19
2022-09-22T22:43:41.260Z,84.10
2022-09-22T22:46:29.528Z,83.40
2022-09-22T22:49:17.296Z,83.38
2022-09-22T22:52:04.079Z,82.86
2022-09-22T22:54:51.137Z,83.78
2022-09-22T22:57:38.008Z,83.74
2022-09-22T23:00:25.481Z,83.52
2022-09-22T23:03:12.536Z,83.11
2022-09-22T23:05:59.481Z,83.81
2022-09-22T23:08:47.796Z,83.64
2022-09-22T23:11:41.193Z,83.43
2022-09-22T23:14:30.622Z,83.17
2022-09-22T23:17:17.613Z,82.97
2022-09-22T23:20:04.631Z,82.69
2022-09-22T23:22:52.392Z,83.20
2022-09-22T23:25:39.315Z,83.39
2022-09-22T23:28:26.280Z,83.09
2022-09-22T23:31:21.127Z,83.94
2022-09-22T23:34:09.636Z,83.09
2022-09-22T23:36:56.540Z,83.14
2022-09-22T23:39:43.548Z,83.59
2022-09-22T23:42:30.496Z,84.01
2022-09-22T23:45:17.431Z,83.26
2022-09-22T23:48:04.267Z,83.90
2022-09-22T23:50:51.244Z,83.30
2022-09-22T23:53:39.843Z,83.09
2022-09-22T23:56:27.191Z,83.32
2022-09-22T23:59:13.972Z,83.51
